Time;durP1;ratioP1;P1;durP2;ratioP2;P2;SDS_P1;SDS_P2;PMS_P1;PMS_P2;Temp;Humidity;BMP_temperature;BMP_pressure;BME280_temperature;BME280_humidity;BME280_pressure;Samples;Min_cycle;Max_cycle;Signal;HPM_P1;HPM_P2
2022/02/13 00:02:19;;;;;;;2.90;1.30;;;;;;;0.74;100.00;101709.38;6323922;28;20418;-75
2022/02/13 00:05:22;;;;;;;3.28;1.35;;;;;;;0.65;100.00;101692.97;6334156;28;20052;-75
2022/02/13 00:08:23;;;;;;;4.32;1.48;;;;;;;0.64;100.00;101696.41;6324167;28;20403;-75
2022/02/13 00:11:25;;;;;;;1.35;1.00;;;;;;;0.55;100.00;101697.25;6324495;28;20431;-75
2022/02/13 00:14:27;;;;;;;1.08;0.75;;;;;;;0.51;100.00;101690.34;6324401;28;20048;-74
2022/02/13 00:17:29;;;;;;;1.55;1.05;;;;;;;0.43;100.00;101685.13;6324322;28;20101;-75
2022/02/13 00:20:31;;;;;;;5.07;1.50;;;;;;;0.41;100.00;101686.84;6323929;28;20462;-75
2022/02/13 00:23:33;;;;;;;2.42;1.45;;;;;;;0.40;100.00;101686.84;6324300;28;20085;-74
2022/02/13 00:26:36;;;;;;;1.75;1.08;;;;;;;0.40;100.00;101684.25;6324600;28;20048;-75
2022/02/13 00:29:37;;;;;;;7.75;1.88;;;;;;;0.40;100.00;101682.53;6324003;28;20039;-73
2022/02/13 00:32:38;;;;;;;3.75;1.48;;;;;;;0.40;100.00;101674.75;6323801;28;20056;-73
2022/02/13 00:35:42;;;;;;;1.05;0.85;;;;;;;0.31;100.00;101671.28;6324236;28;20052;-75
2022/02/13 00:38:43;;;;;;;4.72;0.90;;;;;;;0.24;100.00;101658.34;6323883;28;20044;-75
2022/02/13 00:41:44;;;;;;;1.42;0.93;;;;;;;0.17;100.00;101658.31;6323678;28;20055;-75
2022/02/13 00:44:46;;;;;;;6.75;1.83;;;;;;;0.18;100.00;101658.34;6323861;28;20051;-75
2022/02/13 00:47:47;;;;;;;1.33;1.20;;;;;;;0.13;100.00;101661.72;6323098;28;20052;-75
2022/02/13 00:50:50;;;;;;;2.42;1.50;;;;;;;0.05;100.00;101658.28;6323362;28;20048;-75
2022/02/13 00:53:51;;;;;;;8.45;1.10;;;;;;;0.01;100.00;101659.97;6331340;28;20043;-74
2022/02/13 00:56:52;;;;;;;1.85;0.90;;;;;;;0.05;100.00;101660.88;6345558;28;20494;-75
2022/02/13 00:59:54;;;;;;;2.85;1.08;;;;;;;0.02;100.00;101656.53;6348250;28;20047;-74
2022/02/13 01:02:55;;;;;;;2.15;1.25;;;;;;;0.04;100.00;101662.56;6348400;28;20559;-75
2022/02/13 01:05:58;;;;;;;1.08;0.93;;;;;;;-0.03;100.00;101655.66;6348612;28;20054;-74
2022/02/13 01:08:59;;;;;;;2.35;1.50;;;;;;;-0.04;100.00;101657.38;6348553;28;20044;-75
2022/02/13 01:12:00;;;;;;;4.75;1.08;;;;;;;-0.02;100.00;101657.38;6348221;28;20047;-75
2022/02/13 01:15:03;;;;;;;1.70;1.35;;;;;;;0.01;100.00;101651.38;6348521;28;20054;-74
2022/02/13 01:18:04;;;;;;;1.27;0.80;;;;;;;-0.03;100.00;101655.66;6348260;28;20065;-75
2022/02/13 01:21:08;;;;;;;1.38;0.88;;;;;;;-0.08;100.00;101657.34;6347571;28;20044;-75
2022/02/13 01:24:09;;;;;;;3.70;1.10;;;;;;;-0.13;100.00;101639.25;6348168;28;20085;-75
2022/02/13 01:27:12;;;;;;;2.47;1.25;;;;;;;-0.16;100.00;101631.47;6348056;28;20399;-75
2022/02/13 01:30:13;;;;;;;4.57;1.20;;;;;;;-0.17;100.00;101624.59;6347673;28;20039;-75
2022/02/13 01:33:14;;;;;;;2.05;1.23;;;;;;;-0.12;100.00;101615.13;6347872;28;20487;-74
2022/02/13 01:36:17;;;;;;;2.58;1.77;;;;;;;-0.17;100.00;101609.09;6347999;28;20048;-75
2022/02/13 01:39:18;;;;;;;0.85;0.75;;;;;;;-0.15;100.00;101615.09;6347935;28;20055;-75
2022/02/13 01:42:20;;;;;;;1.80;1.20;;;;;;;-0.18;100.00;101614.22;6347061;28;20052;-75
2022/02/13 01:45:22;;;;;;;2.63;1.05;;;;;;;-0.16;100.00;101618.56;6347522;28;20051;-75
2022/02/13 01:48:23;;;;;;;2.65;1.48;;;;;;;-0.14;100.00;101608.22;6347717;28;20044;-74
2022/02/13 01:51:26;;;;;;;1.05;0.93;;;;;;;-0.19;100.00;101612.50;6347141;28;20058;-74
2022/02/13 01:54:27;;;;;;;3.17;1.23;;;;;;;-0.26;100.00;101598.72;6347407;28;20043;-75
2022/02/13 01:57:29;;;;;;;5.03;1.40;;;;;;;-0.32;100.00;101603.81;6340759;27;20065;-75
2022/02/13 02:00:31;;;;;;;2.47;1.38;;;;;;;-0.30;100.00;101595.25;6345374;28;20058;-75
2022/02/13 02:03:32;;;;;;;3.83;1.45;;;;;;;-0.36;100.00;101595.22;6347056;28;20054;-74
2022/02/13 02:06:35;;;;;;;1.67;1.10;;;;;;;-0.39;100.00;101590.03;6347134;28;20054;-75
2022/02/13 02:09:37;;;;;;;3.78;0.85;;;;;;;-0.40;100.00;101593.47;6347170;28;20055;-75
2022/02/13 02:12:39;;;;;;;1.42;1.05;;;;;;;-0.44;100.00;101584.00;6346743;28;20051;-74
2022/02/13 02:15:40;;;;;;;1.73;1.15;;;;;;;-0.47;100.00;101580.50;6346962;28;20051;-75
2022/02/13 02:18:42;;;;;;;2.53;1.10;;;;;;;-0.51;100.00;101583.06;6346741;28;20043;-74
2022/02/13 02:21:45;;;;;;;2.38;1.17;;;;;;;-0.53;100.00;101574.47;6346759;28;20430;-75
2022/02/13 02:24:48;;;;;;;2.88;1.58;;;;;;;-0.58;100.00;101572.72;6346660;28;20047;-75
2022/02/13 02:27:49;;;;;;;2.45;1.40;;;;;;;-0.52;100.00;101562.41;6346782;28;20051;-75
2022/02/13 02:30:51;;;;;;;1.95;1.38;;;;;;;-0.45;100.00;101555.59;6346123;28;20036;-74
2022/02/13 02:33:52;;;;;;;2.53;1.35;;;;;;;-0.46;100.00;101554.69;6346754;28;20052;-74
2022/02/13 02:36:53;;;;;;;2.97;1.40;;;;;;;-0.43;100.00;101546.13;6346557;28;20517;-75
2022/02/13 02:39:56;;;;;;;3.75;1.88;;;;;;;-0.42;100.00;101537.50;6346464;28;20047;-75
2022/02/13 02:42:57;;;;;;;2.03;1.48;;;;;;;-0.42;100.00;101524.59;6346943;28;20048;-77
2022/02/13 02:45:59;;;;;;;2.30;1.08;;;;;;;-0.46;100.00;101528.03;6346745;28;20059;-74
2022/02/13 02:49:00;;;;;;;2.53;1.15;;;;;;;-0.51;100.00;101543.50;6346588;28;20419;-75
2022/02/13 02:52:01;;;;;;;1.00;0.90;;;;;;;-0.49;100.00;101533.19;6346193;28;20051;-75
2022/02/13 02:55:05;;;;;;;2.20;1.52;;;;;;;-0.54;100.00;101515.97;6343169;28;20040;-74
2022/02/13 02:58:06;;;;;;;1.27;0.93;;;;;;;-0.57;100.00;101515.06;6346614;28;20050;-76
2022/02/13 03:01:08;;;;;;;2.40;1.13;;;;;;;-0.56;100.00;101506.47;6348612;28;20048;-77
2022/02/13 03:04:09;;;;;;;10.65;2.20;;;;;;;-0.57;100.00;101505.59;6350314;28;20051;-76
2022/02/13 03:07:11;;;;;;;3.03;1.30;;;;;;;-0.63;100.00;101502.16;6350451;28;20047;-75
2022/02/13 03:10:13;;;;;;;2.97;1.52;;;;;;;-0.64;100.00;101498.69;6350589;28;20044;-76
2022/02/13 03:13:16;;;;;;;2.75;1.30;;;;;;;-0.66;100.00;101484.91;6355313;28;20048;-77
2022/02/13 03:16:18;;;;;;;7.05;0.93;;;;;;;-0.68;100.00;101489.22;6354938;28;20044;-76
2022/02/13 03:19:19;;;;;;;4.03;0.98;;;;;;;-0.66;100.00;101489.22;6354724;28;20055;-75
2022/02/13 03:22:20;;;;;;;1.83;1.25;;;;;;;-0.66;100.00;101479.75;6353748;28;20051;-77
2022/02/13 03:25:23;;;;;;;2.22;1.27;;;;;;;-0.68;100.00;101481.47;6353935;28;20073;-77
2022/02/13 03:28:25;;;;;;;3.38;1.60;;;;;;;-0.71;100.00;101475.44;6353005;28;20047;-76
2022/02/13 03:31:26;;;;;;;0.90;0.90;;;;;;;-0.71;100.00;101465.13;6353739;28;20642;-76
2022/02/13 03:34:28;;;;;;;2.72;1.42;;;;;;;-0.75;100.00;101443.59;6353897;28;20051;-76
2022/02/13 03:37:29;;;;;;;4.35;1.75;;;;;;;-0.77;100.00;101432.41;6353528;28;20054;-77
2022/02/13 03:40:32;;;;;;;1.35;0.73;;;;;;;-0.78;100.00;101422.91;6353761;28;20506;-76
2022/02/13 03:43:34;;;;;;;4.40;1.13;;;;;;;-0.78;100.00;101428.09;6352971;28;20047;-76
2022/02/13 03:46:35;;;;;;;1.52;1.00;;;;;;;-0.75;100.00;101415.19;6353165;28;20051;-76
2022/02/13 03:49:36;;;;;;;2.80;1.48;;;;;;;-0.70;100.00;101418.66;6353296;28;20044;-77
2022/02/13 03:52:38;;;;;;;2.25;1.23;;;;;;;-0.65;100.00;101426.41;6351353;28;20043;-77
2022/02/13 03:55:41;;;;;;;2.10;1.27;;;;;;;-0.66;100.00;101424.69;6352877;28;20056;-76
2022/02/13 03:58:42;;;;;;;1.88;1.10;;;;;;;-0.65;100.00;101426.41;6352593;28;20056;-76
2022/02/13 04:01:43;;;;;;;1.35;0.80;;;;;;;-0.64;100.00;101423.81;6351053;28;20065;-76
2022/02/13 04:04:45;;;;;;;3.80;1.58;;;;;;;-0.65;100.00;101418.69;6352384;28;20055;-76
2022/02/13 04:07:46;;;;;;;1.60;1.02;;;;;;;-0.63;100.00;101420.41;6352822;28;20044;-76
2022/02/13 04:10:49;;;;;;;2.28;1.20;;;;;;;-0.62;100.00;101413.53;6351837;28;20088;-76
2022/02/13 04:13:50;;;;;;;3.05;1.70;;;;;;;-0.59;100.00;101410.94;6352540;28;20048;-76
2022/02/13 04:16:52;;;;;;;1.88;1.48;;;;;;;-0.60;100.00;101407.50;6352041;28;20052;-77
2022/02/13 04:19:53;;;;;;;2.53;1.35;;;;;;;-0.56;100.00;101409.25;6351955;28;20039;-76
2022/02/13 04:22:54;;;;;;;2.17;1.42;;;;;;;-0.60;100.00;101412.66;6351799;28;20525;-77
2022/02/13 04:25:57;;;;;;;2.85;1.45;;;;;;;-0.57;100.00;101409.25;6352810;28;20054;-77
2022/02/13 04:28:58;;;;;;;2.30;1.35;;;;;;;-0.62;100.00;101405.78;6353231;27;20043;-77
2022/02/13 04:32:00;;;;;;;1.27;0.98;;;;;;;-0.66;100.00;101404.91;6352073;28;20418;-77
2022/02/13 04:35:01;;;;;;;5.90;1.45;;;;;;;-0.57;100.00;101402.34;6352568;28;20048;-76
2022/02/13 04:38:03;;;;;;;1.90;1.55;;;;;;;-0.61;100.00;101394.59;6352428;28;20047;-77
2022/02/13 04:41:06;;;;;;;4.07;2.03;;;;;;;-0.62;100.00;101391.16;6352721;28;20051;-76
2022/02/13 04:44:08;;;;;;;2.47;1.38;;;;;;;-0.54;100.00;101386.03;6352835;28;20120;-76
2022/02/13 04:47:09;;;;;;;3.88;1.38;;;;;;;-0.55;100.00;101381.69;6352069;28;20055;-77
2022/02/13 04:50:11;;;;;;;1.70;0.82;;;;;;;-0.62;100.00;101385.13;6351961;28;20043;-76
2022/02/13 04:53:12;;;;;;;5.18;1.83;;;;;;;-0.59;100.00;101375.69;6348195;27;20047;-77
2022/02/13 04:56:16;;;;;;;5.68;1.25;;;;;;;-0.56;100.00;101370.50;6351719;28;20043;-76
2022/02/13 04:59:18;;;;;;;7.18;1.65;;;;;;;-0.44;100.00;101369.69;6351745;28;20054;-76
2022/02/13 05:02:20;;;;;;;4.10;0.73;;;;;;;-0.43;100.00;101360.22;6350910;28;20130;-76
2022/02/13 05:05:21;;;;;;;2.47;1.10;;;;;;;-0.39;100.00;101344.75;6351287;28;20043;-76
2022/02/13 05:08:23;;;;;;;1.58;0.98;;;;;;;-0.40;100.00;101347.31;6335373;28;20043;-76
2022/02/13 05:11:26;;;;;;;4.28;1.38;;;;;;;-0.37;100.00;101336.97;6334960;28;20051;-75
2022/02/13 05:14:27;;;;;;;1.98;1.50;;;;;;;-0.35;100.00;101337.88;6335737;28;20051;-76
2022/02/13 05:17:29;;;;;;;6.60;1.60;;;;;;;-0.38;100.00;101349.03;6334269;28;20055;-76
2022/02/13 05:20:30;;;;;;;2.65;1.00;;;;;;;-0.41;100.00;101337.84;6338918;28;20105;-76
2022/02/13 05:23:32;;;;;;;4.55;1.27;;;;;;;-0.47;100.00;101340.41;6337312;28;20055;-77
2022/02/13 05:26:34;;;;;;;4.70;1.88;;;;;;;-0.56;100.00;101331.78;6337410;28;20055;-76
2022/02/13 05:29:37;;;;;;;1.40;1.08;;;;;;;-0.61;100.00;101327.50;6336281;28;20044;-76
2022/02/13 05:32:38;;;;;;;2.33;1.33;;;;;;;-0.62;100.00;101328.34;6333100;28;20048;-76
2022/02/13 05:35:40;;;;;;;4.15;1.95;;;;;;;-0.62;100.00;101333.53;6334978;28;20070;-76
2022/02/13 05:38:41;;;;;;;2.85;1.77;;;;;;;-0.65;100.00;101329.19;6334509;28;20121;-76
2022/02/13 05:41:45;;;;;;;1.65;0.90;;;;;;;-0.62;100.00;101338.69;6334459;28;20388;-76
2022/02/13 05:44:46;;;;;;;1.15;1.05;;;;;;;-0.68;100.00;101336.06;6335937;28;20044;-76
2022/02/13 05:47:48;;;;;;;1.55;1.02;;;;;;;-0.74;100.00;101336.94;6336420;28;20058;-76
2022/02/13 05:50:49;;;;;;;5.43;1.20;;;;;;;-0.81;100.00;101340.38;6334294;28;20040;-76
2022/02/13 05:53:51;;;;;;;2.03;0.93;;;;;;;-0.80;100.00;101342.06;6331861;28;20423;-76
2022/02/13 05:56:53;;;;;;;2.95;1.27;;;;;;;-0.80;100.00;101355.84;6334457;28;20493;-76
2022/02/13 05:59:55;;;;;;;2.00;1.30;;;;;;;-0.84;100.00;101351.53;6334549;28;20044;-76
2022/02/13 06:02:56;;;;;;;0.95;0.90;;;;;;;-0.89;100.00;101344.63;6336551;28;20059;-76
2022/02/13 06:05:57;;;;;;;4.40;1.15;;;;;;;-0.93;100.00;101340.31;6331739;28;20055;-77
2022/02/13 06:08:59;;;;;;;2.08;1.27;;;;;;;-0.93;100.00;101336.00;6324604;28;20044;-77
2022/02/13 06:12:01;;;;;;;1.63;0.88;;;;;;;-0.95;100.00;101342.91;6326105;28;20044;-76
2022/02/13 06:15:03;;;;;;;2.00;1.80;;;;;;;-1.00;100.00;101330.81;6331776;28;20047;-77
2022/02/13 06:18:04;;;;;;;2.13;1.02;;;;;;;-1.05;100.00;101323.91;6332793;28;20044;-76
2022/02/13 06:21:06;;;;;;;1.77;1.10;;;;;;;-1.00;100.00;101323.94;6336559;28;20063;-76
2022/02/13 06:24:07;;;;;;;1.98;1.33;;;;;;;-0.95;100.00;101324.84;6334693;28;20056;-76
2022/02/13 06:27:10;;;;;;;3.17;1.30;;;;;;;-0.97;100.00;101316.22;6335212;28;20486;-76
2022/02/13 06:30:12;;;;;;;3.67;1.42;;;;;;;-0.93;100.00;101320.53;6333211;28;20044;-76
2022/02/13 06:33:14;;;;;;;1.02;0.82;;;;;;;-0.95;100.00;101314.53;6335021;28;20050;-77
2022/02/13 06:36:15;;;;;;;2.05;0.95;;;;;;;-0.94;100.00;101326.56;6335016;28;20051;-76
2022/02/13 06:39:17;;;;;;;1.10;0.90;;;;;;;-0.96;100.00;101330.84;6339328;28;20051;-76
2022/02/13 06:42:19;;;;;;;1.08;0.85;;;;;;;-0.94;100.00;101328.28;6348773;28;20055;-77
2022/02/13 06:45:21;;;;;;;0.93;0.85;;;;;;;-1.00;100.00;101329.09;6342394;28;20048;-76
2022/02/13 06:48:22;;;;;;;0.70;0.68;;;;;;;-1.03;100.00;101322.22;6354380;28;20051;-77
2022/02/13 06:51:24;;;;;;;2.70;1.10;;;;;;;-0.98;100.00;101324.81;6338730;28;20051;-77
2022/02/13 06:54:25;;;;;;;1.23;1.08;;;;;;;-1.05;100.00;101325.66;6348143;28;20055;-76
2022/02/13 06:57:28;;;;;;;2.17;1.25;;;;;;;-1.07;100.00;101324.78;6356884;28;20044;-77
2022/02/13 07:00:29;;;;;;;2.53;1.33;;;;;;;-1.10;100.00;101327.34;6353589;28;20088;-76
2022/02/13 07:03:31;;;;;;;1.90;1.10;;;;;;;-1.11;100.00;101317.91;6353680;28;20047;-76
2022/02/13 07:06:32;;;;;;;1.95;1.10;;;;;;;-1.05;100.00;101315.31;6353276;28;20054;-76
2022/02/13 07:09:34;;;;;;;7.60;1.52;;;;;;;-1.02;100.00;101313.63;6340622;28;20052;-76
2022/02/13 07:12:37;;;;;;;2.97;1.20;;;;;;;-0.96;100.00;101305.03;6351454;28;20044;-76
2022/02/13 07:15:38;;;;;;;2.38;0.88;;;;;;;-0.95;100.00;101308.47;6351377;27;20054;-76
2022/02/13 07:18:40;;;;;;;5.38;1.88;;;;;;;-0.91;100.00;101305.94;6349225;28;20426;-75
2022/02/13 07:21:41;;;;;;;1.88;1.15;;;;;;;-0.85;100.00;101302.50;6325362;28;20052;-76
2022/02/13 07:24:43;;;;;;;2.72;0.98;;;;;;;-0.82;100.00;101308.53;6325507;28;20048;-76
2022/02/13 07:27:45;;;;;;;1.40;0.82;;;;;;;-0.79;100.00;101302.50;6328872;28;20048;-76
2022/02/13 07:30:47;;;;;;;2.38;2.13;;;;;;;-0.78;100.00;101304.22;6350356;28;20051;-76
2022/02/13 07:33:48;;;;;;;4.30;1.88;;;;;;;-0.77;100.00;101304.25;6350840;28;20430;-75
2022/02/13 07:36:54;;;;;;;5.57;2.05;;;;;;;-0.73;100.00;101307.66;6350887;28;20055;-75
2022/02/13 07:39:55;;;;;;;1.73;1.00;;;;;;;-0.63;100.00;101300.84;6350583;28;20718;-75
2022/02/13 07:42:58;;;;;;;1.42;1.02;;;;;;;-0.53;100.00;101305.16;6350517;28;20051;-75
2022/02/13 07:45:59;;;;;;;1.08;0.88;;;;;;;-0.43;100.00;101300.84;6350323;28;20048;-76
2022/02/13 07:49:05;;;;;;;2.97;1.90;;;;;;;-0.39;100.00;101300.00;6339213;28;20043;-75
2022/02/13 07:52:06;;;;;;;1.00;0.80;;;;;;;-0.24;100.00;101289.66;6334082;28;20039;-76
2022/02/13 07:55:09;;;;;;;1.80;1.25;;;;;;;-0.18;100.00;101291.34;6336944;28;20506;-76
2022/02/13 07:58:11;;;;;;;1.90;1.38;;;;;;;-0.09;100.00;101281.91;6335639;28;20047;-75
2022/02/13 08:01:13;;;;;;;2.10;1.42;;;;;;;0.03;100.00;101278.44;6339120;28;20051;-77
2022/02/13 08:04:16;;;;;;;4.20;2.10;;;;;;;0.12;100.00;101282.72;6350052;28;20066;-78
2022/02/13 08:07:17;;;;;;;2.45;1.80;;;;;;;0.24;100.00;101277.53;6343954;28;20047;-77
2022/02/13 08:10:19;;;;;;;3.17;2.20;;;;;;;0.24;100.00;101277.53;6349618;28;20043;-77
2022/02/13 08:13:22;;;;;;;3.45;1.70;;;;;;;0.35;100.00;101273.19;6349980;28;20068;-77
2022/02/13 08:16:23;;;;;;;1.65;1.27;;;;;;;0.44;100.00;101273.16;6350227;28;20054;-76
2022/02/13 08:19:24;;;;;;;1.92;1.20;;;;;;;0.57;99.78;101263.63;6349486;28;20052;-78
2022/02/13 08:22:26;;;;;;;3.70;1.30;;;;;;;0.73;96.20;101269.63;6349765;28;20040;-78
2022/02/13 08:25:27;;;;;;;1.55;1.45;;;;;;;0.87;96.52;101259.22;6349789;28;20055;-77
2022/02/13 08:28:32;;;;;;;2.33;1.10;;;;;;;0.93;93.47;101254.00;6349769;28;20051;-78
2022/02/13 08:31:33;;;;;;;7.43;1.70;;;;;;;1.01;94.38;101252.22;6349112;28;20046;-78
2022/02/13 08:34:35;;;;;;;1.38;1.10;;;;;;;1.12;94.08;101249.56;6337654;28;20047;-78
2022/02/13 08:37:37;;;;;;;3.50;1.23;;;;;;;1.20;92.84;101252.97;6344397;28;20054;-78
2022/02/13 08:40:39;;;;;;;2.80;1.50;;;;;;;1.27;89.81;101239.97;6349173;28;20047;-77
2022/02/13 08:43:41;;;;;;;1.33;1.08;;;;;;;1.33;89.47;101241.66;6339887;28;20052;-75
2022/02/13 08:46:43;;;;;;;2.72;1.70;;;;;;;1.43;88.23;101243.28;6341155;28;20047;-76
2022/02/13 08:49:44;;;;;;;3.92;1.67;;;;;;;1.58;88.39;101236.25;6346097;28;20046;-77
2022/02/13 08:52:46;;;;;;;1.80;1.23;;;;;;;1.60;86.99;101225.03;6337358;28;20072;-75
2022/02/13 08:55:47;;;;;;;2.50;1.63;;;;;;;1.78;85.93;101226.59;6343195;28;20047;-75
2022/02/13 08:58:52;;;;;;;4.15;1.65;;;;;;;1.86;82.20;101221.31;6348413;28;20059;-76
2022/02/13 09:01:54;;;;;;;2.17;1.63;;;;;;;2.06;81.21;101219.41;6348696;28;20168;-77
2022/02/13 09:04:55;;;;;;;2.35;1.48;;;;;;;2.05;81.53;101215.09;6348540;28;20063;-78
2022/02/13 09:07:57;;;;;;;9.15;2.00;;;;;;;2.05;79.16;101207.31;6348192;28;20051;-77
2022/02/13 09:10:58;;;;;;;1.23;1.08;;;;;;;2.33;78.57;101188.84;6348082;28;20051;-78
2022/02/13 09:14:03;;;;;;;3.00;1.55;;;;;;;2.32;80.23;101193.19;6340442;28;20048;-77
2022/02/13 09:17:06;;;;;;;4.63;2.10;;;;;;;2.31;80.63;101193.19;6348121;28;20056;-77
2022/02/13 09:20:09;;;;;;;3.63;1.65;;;;;;;2.48;79.31;101199.03;6348005;28;20047;-78
2022/02/13 09:23:12;;;;;;;2.80;1.70;;;;;;;2.52;77.86;101192.91;6348145;28;20047;-77
2022/02/13 09:26:16;;;;;;;2.13;1.55;;;;;;;2.53;78.17;101185.09;6347985;28;20044;-78
2022/02/13 09:29:19;;;;;;;1.77;1.40;;;;;;;2.66;78.33;101184.94;6348207;28;20059;-78
2022/02/13 09:32:20;;;;;;;3.03;1.48;;;;;;;2.79;77.07;101192.53;6344474;27;20062;-76
2022/02/13 09:35:21;;;;;;;4.78;1.70;;;;;;;2.86;75.90;101192.44;6322715;28;20638;-77
2022/02/13 09:38:23;;;;;;;3.95;1.88;;;;;;;2.91;77.14;101188.06;6331071;28;20047;-76
2022/02/13 09:41:25;;;;;;;2.28;1.35;;;;;;;2.94;75.35;101195.78;6345888;28;20071;-78
2022/02/13 09:44:28;;;;;;;5.68;1.33;;;;;;;2.97;75.70;101178.44;6347792;27;20054;-74
2022/02/13 09:47:29;;;;;;;2.70;1.70;;;;;;;3.13;75.98;101192.03;6347596;28;20047;-77
2022/02/13 09:50:31;;;;;;;3.83;1.95;;;;;;;3.23;75.44;101182.38;6347199;28;20039;-78
2022/02/13 09:53:34;;;;;;;4.45;1.85;;;;;;;3.36;74.90;101177.81;6347627;27;20117;-74
2022/02/13 09:56:36;;;;;;;3.67;0.90;;;;;;;3.47;75.29;101178.50;6347493;28;20079;-77
2022/02/13 09:59:55;;;;;;;3.53;1.85;;;;;;;3.54;70.76;101175.78;6345297;28;20055;-77
2022/02/13 10:02:56;;;;;;;7.85;1.60;;;;;;;3.66;71.43;101171.25;6336570;28;20499;-77
2022/02/13 10:06:00;;;;;;;3.28;1.20;;;;;;;3.71;72.75;101180.66;6347239;28;20048;-77
2022/02/13 10:09:01;;;;;;;5.95;1.10;;;;;;;3.70;73.20;101168.56;6347226;28;20054;-78
2022/02/13 10:12:02;;;;;;;3.35;1.20;;;;;;;3.77;73.24;101174.50;6335266;28;20526;-78
2022/02/13 10:15:24;;;;;;;1.70;1.02;;;;;;;3.83;70.40;101165.75;6336520;28;20482;-77
2022/02/13 10:18:27;;;;;;;3.55;1.40;;;;;;;3.82;69.43;101164.91;6333177;28;20044;-78
2022/02/13 10:21:49;;;;;;;3.20;1.38;;;;;;;3.86;69.53;101158.75;6343238;28;20048;-78
2022/02/13 10:24:52;;;;;;;1.55;0.93;;;;;;;3.96;70.02;101149.88;6333448;28;20486;-77
2022/02/13 10:27:53;;;;;;;1.90;1.08;;;;;;;4.01;69.51;101162.78;6336987;28;20051;-77
2022/02/13 10:30:58;;;;;;;2.75;1.20;;;;;;;4.01;68.56;101155.00;6343660;28;20044;-78
2022/02/13 10:34:00;;;;;;;4.65;1.23;;;;;;;4.05;69.40;101149.69;6340564;28;20043;-77
2022/02/13 10:37:01;;;;;;;0.95;0.68;;;;;;;4.25;71.42;101138.03;6338602;28;20509;-78
2022/02/13 10:40:04;;;;;;;5.00;1.80;;;;;;;4.32;65.72;101145.69;6337146;28;20050;-77
2022/02/13 10:43:09;;;;;;;2.42;1.13;;;;;;;4.41;65.24;101136.81;6333152;28;20052;-76
2022/02/13 10:46:18;;;;;;;4.72;1.20;;;;;;;4.58;66.04;101132.06;6338270;28;20126;-77
2022/02/13 10:49:20;;;;;;;1.60;1.20;;;;;;;4.75;65.17;101133.44;6336910;28;20435;-77
2022/02/13 10:52:22;;;;;;;2.97;1.35;;;;;;;4.79;63.38;101128.13;6338335;28;20047;-77
2022/02/13 10:55:24;;;;;;;3.50;1.17;;;;;;;4.81;64.46;101115.06;6335207;28;20044;-77
2022/02/13 10:58:25;;;;;;;2.00;0.70;;;;;;;4.96;64.84;101122.53;6341156;28;20075;-78
2022/02/13 11:01:29;;;;;;;2.38;1.23;;;;;;;4.99;65.92;101105.97;6334951;28;20044;-78
2022/02/13 11:04:31;;;;;;;3.10;1.25;;;;;;;5.03;63.88;101099.78;6335602;28;20068;-77
2022/02/13 11:07:32;;;;;;;2.35;1.20;;;;;;;5.19;64.29;101079.44;6331569;28;20076;-79
2022/02/13 11:10:40;;;;;;;2.28;1.23;;;;;;;5.34;64.09;101079.88;6334255;28;20043;-76
2022/02/13 11:13:44;;;;;;;8.77;1.50;;;;;;;5.27;64.22;101062.72;6332987;28;20051;-77
2022/02/13 11:16:47;;;;;;;1.63;1.17;;;;;;;5.42;65.68;101073.63;6333703;28;20054;-78
2022/02/13 11:19:49;;;;;;;6.55;1.42;;;;;;;5.57;65.63;101057.56;6338884;28;20051;-80
2022/02/13 11:22:53;;;;;;;2.55;1.67;;;;;;;5.70;65.06;101056.31;6329286;28;20040;-77
2022/02/13 11:25:56;;;;;;;4.65;1.67;;;;;;;5.88;66.24;101061.91;6335653;28;20052;-77
2022/02/13 11:28:58;;;;;;;3.15;1.20;;;;;;;5.86;64.52;101051.53;6335044;28;20047;-77
2022/02/13 11:32:04;;;;;;;2.13;1.23;;;;;;;5.97;64.48;101054.69;6332855;28;20036;-78
2022/02/13 11:35:08;;;;;;;3.30;1.50;;;;;;;6.02;63.62;101037.16;6335336;28;20425;-78
2022/02/13 11:38:09;;;;;;;5.70;1.50;;;;;;;6.09;65.84;101030.88;6336019;28;20055;-77
2022/02/13 11:41:11;;;;;;;3.55;1.52;;;;;;;6.18;64.08;101029.72;6336922;28;20108;-78
2022/02/13 11:44:32;;;;;;;1.98;1.10;;;;;;;6.40;62.76;101026.44;6335584;28;20422;-78
2022/02/13 11:47:41;;;;;;;1.38;1.02;;;;;;;6.39;61.98;101020.38;6336915;28;20138;-78
2022/02/13 11:50:46;;;;;;;2.58;1.30;;;;;;;6.53;64.76;101025.16;6335220;28;20568;-78
2022/02/13 11:53:47;;;;;;;1.27;1.17;;;;;;;6.66;65.69;101018.63;6324055;28;20055;-78
2022/02/13 11:57:07;;;;;;;2.88;1.08;;;;;;;6.77;64.40;101023.50;6324017;28;20051;-78
2022/02/13 12:00:12;;;;;;;3.67;1.70;;;;;;;6.90;63.27;101006.50;6323499;28;20564;-78
2022/02/13 12:03:20;;;;;;;2.05;1.48;;;;;;;7.00;61.63;100992.25;6323928;28;20044;-77
2022/02/13 12:06:30;;;;;;;3.88;1.23;;;;;;;7.03;61.42;100981.66;6323650;28;20056;-78
2022/02/13 12:09:31;;;;;;;2.50;1.50;;;;;;;7.19;61.44;100973.28;6335110;28;20051;-78
2022/02/13 12:12:33;;;;;;;1.95;1.15;;;;;;;7.27;61.04;100971.28;6335274;28;20419;-78
2022/02/13 12:15:34;;;;;;;4.53;1.58;;;;;;;7.25;59.72;100976.53;6336064;28;20047;-78
2022/02/13 12:18:37;;;;;;;3.38;1.42;;;;;;;7.45;58.53;100977.56;6339338;28;20043;-78
2022/02/13 12:21:39;;;;;;;4.10;1.23;;;;;;;7.61;59.67;100974.31;6339338;28;20521;-79
2022/02/13 12:24:41;;;;;;;3.17;1.58;;;;;;;7.77;57.28;100956.31;6337344;28;20054;-78
2022/02/13 12:27:44;;;;;;;2.63;1.25;;;;;;;7.81;58.26;100954.41;6336000;28;20054;-78
2022/02/13 12:30:53;;;;;;;2.47;1.27;;;;;;;7.86;59.33;100942.88;6339831;28;20051;-78
2022/02/13 12:33:56;;;;;;;3.35;1.45;;;;;;;7.88;58.55;100941.03;6349817;28;20056;-78
2022/02/13 12:37:02;;;;;;;2.00;1.23;;;;;;;7.88;58.57;100930.56;6349923;28;20211;-77
2022/02/13 12:40:03;;;;;;;1.70;1.30;;;;;;;7.99;59.26;100931.91;6349258;28;20055;-78
2022/02/13 12:43:07;;;;;;;2.80;1.70;;;;;;;8.04;56.89;100916.88;6347406;27;20047;-78
2022/02/13 12:46:09;;;;;;;4.22;1.73;;;;;;;8.04;55.52;100922.09;6338179;28;20536;-76
2022/02/13 12:49:11;;;;;;;3.03;1.48;;;;;;;8.12;58.82;100923.50;6341464;28;20047;-77
2022/02/13 12:52:13;;;;;;;4.05;1.42;;;;;;;8.17;56.09;100906.75;6346880;28;20501;-79
2022/02/13 12:55:16;;;;;;;1.83;1.00;;;;;;;8.33;57.06;100911.31;6345844;28;20040;-78
2022/02/13 12:58:18;;;;;;;5.13;1.50;;;;;;;8.33;53.19;100897.38;6345966;28;20054;-78
2022/02/13 13:01:30;;;;;;;2.88;1.58;;;;;;;8.37;53.76;100896.34;6346895;28;20055;-78
2022/02/13 13:04:32;;;;;;;2.38;1.40;;;;;;;8.41;55.50;100895.31;6347144;28;20510;-78
2022/02/13 13:07:34;;;;;;;2.70;1.23;;;;;;;8.45;54.31;100891.66;6347721;28;20056;-78
2022/02/13 13:10:36;;;;;;;1.60;1.20;;;;;;;8.49;53.60;100887.13;6348444;28;20051;-78
2022/02/13 13:13:39;;;;;;;2.75;1.35;;;;;;;8.74;53.37;100879.06;6349003;28;20051;-77
2022/02/13 13:16:41;;;;;;;1.50;1.02;;;;;;;8.84;51.66;100869.88;6348975;28;20050;-78
2022/02/13 13:19:43;;;;;;;3.75;1.30;;;;;;;8.89;50.25;100860.03;6348655;28;20098;-78
2022/02/13 13:22:45;;;;;;;3.35;1.50;;;;;;;8.85;50.54;100861.94;6348766;28;20047;-78
2022/02/13 13:25:48;;;;;;;2.08;1.02;;;;;;;8.95;47.70;100854.53;6348974;28;20058;-78
2022/02/13 13:28:49;;;;;;;2.63;1.40;;;;;;;9.03;48.71;100841.06;6349109;28;20056;-78
2022/02/13 13:31:55;;;;;;;2.42;1.27;;;;;;;9.11;48.00;100841.59;6348321;28;20055;-78
2022/02/13 13:34:58;;;;;;;2.17;1.25;;;;;;;9.10;47.70;100832.88;6348912;28;20184;-78
2022/02/13 13:38:04;;;;;;;9.32;3.70;;;;;;;9.46;46.21;100829.47;6348765;28;20047;-78
2022/02/13 13:41:07;;;;;;;3.17;1.58;;;;;;;9.40;46.71;100819.25;6343581;28;20040;-78
2022/02/13 13:44:19;;;;;;;2.70;1.27;;;;;;;9.36;47.24;100810.69;6348333;28;20510;-78
2022/02/13 13:47:21;;;;;;;2.60;1.58;;;;;;;9.40;46.78;100808.75;6344557;28;20394;-76
2022/02/13 13:50:26;;;;;;;0.90;0.77;;;;;;;9.49;49.29;100799.59;6347488;28;20054;-76
2022/02/13 13:53:29;;;;;;;1.45;1.02;;;;;;;9.48;51.39;100792.66;6347961;28;20051;-76
2022/02/13 13:56:31;;;;;;;2.70;1.55;;;;;;;9.50;52.46;100796.06;6345324;28;20104;-75
2022/02/13 13:59:32;;;;;;;2.53;1.52;;;;;;;9.20;52.39;100801.84;6343475;28;20051;-76
2022/02/13 14:02:34;;;;;;;2.88;1.65;;;;;;;8.98;52.83;100798.50;6346381;28;20052;-77
2022/02/13 14:05:38;;;;;;;3.25;1.83;;;;;;;8.84;53.61;100775.53;6346369;28;20605;-76
2022/02/13 14:08:40;;;;;;;2.45;1.35;;;;;;;8.80;55.87;100781.84;6347117;28;20055;-77